Time;durP1;ratioP1;P1;durP2;ratioP2;P2;SDS_P1;SDS_P2;PMS_P1;PMS_P2;Temp;Humidity;BMP_temperature;BMP_pressure;BME280_temperature;BME280_humidity;BME280_pressure;Samples;Min_cycle;Max_cycle;Signal;HPM_P1;HPM_P2
2023/07/24 00:01:12;;;;;;;3.33;2.53;;;;;;;22.02;50.11;100348.03;5041807;28;20064;-73
2023/07/24 00:03:37;;;;;;;3.55;2.40;;;;;;;22.03;50.25;100347.03;5032385;28;20037;-73
2023/07/24 00:06:03;;;;;;;3.67;2.25;;;;;;;22.03;50.34;100344.38;5032178;28;20526;-73
2023/07/24 00:08:28;;;;;;;3.50;2.65;;;;;;;22.03;50.07;100346.22;5048931;28;20037;-73
2023/07/24 00:10:54;;;;;;;3.25;2.35;;;;;;;22.01;50.11;100345.59;5024729;28;20389;-73
2023/07/24 00:13:19;;;;;;;3.53;2.55;;;;;;;21.97;50.03;100336.44;5032683;28;20053;-73
2023/07/24 00:15:45;;;;;;;3.85;2.40;;;;;;;22.01;50.27;100345.59;5023100;28;20045;-74
2023/07/24 00:18:10;;;;;;;5.90;2.65;;;;;;;22.01;50.38;100340.28;5030795;28;20403;-72
2023/07/24 00:20:36;;;;;;;4.18;2.92;;;;;;;22.00;50.04;100341.31;5028842;28;20045;-73
2023/07/24 00:23:01;;;;;;;3.97;2.38;;;;;;;21.99;50.03;100347.66;5050011;28;20108;-73
2023/07/24 00:25:27;;;;;;;3.28;2.30;;;;;;;22.00;50.41;100343.97;5030727;28;20064;-74
2023/07/24 00:27:52;;;;;;;3.92;2.63;;;;;;;21.98;50.17;100335.41;5031372;28;20044;-73
2023/07/24 00:30:18;;;;;;;3.65;2.30;;;;;;;21.89;50.13;100324.19;5036353;28;20099;-73
2023/07/24 00:32:43;;;;;;;3.63;2.67;;;;;;;22.00;50.19;100338.66;5030997;28;20570;-74
2023/07/24 00:35:09;;;;;;;5.78;2.95;;;;;;;22.00;50.13;100336.84;5028928;28;20117;-76
2023/07/24 00:37:35;;;;;;;3.60;2.50;;;;;;;21.96;50.13;100334.81;5031725;28;20056;-72
2023/07/24 00:40:00;;;;;;;3.40;2.30;;;;;;;21.85;50.27;100315.03;5028162;28;20042;-73
2023/07/24 00:42:26;;;;;;;3.90;2.65;;;;;;;21.99;50.55;100335.19;5028634;28;20033;-73
2023/07/24 00:44:51;;;;;;;4.30;2.88;;;;;;;21.97;50.00;100331.94;5026910;28;20793;-74
2023/07/24 00:47:17;;;;;;;3.47;2.50;;;;;;;21.93;50.19;100324.63;5045118;28;20033;-74
2023/07/24 00:49:46;;;;;;;4.07;2.72;;;;;;;21.84;50.32;100312.59;5045463;28;20033;-73
2023/07/24 00:52:12;;;;;;;2.78;2.25;;;;;;;21.97;50.36;100339.09;5029558;28;20091;-72
2023/07/24 00:54:38;;;;;;;4.32;2.70;;;;;;;21.95;50.15;100334.00;5026870;28;20050;-74
2023/07/24 00:57:05;;;;;;;4.20;2.83;;;;;;;21.95;50.29;100335.81;5031425;28;20076;-73
2023/07/24 00:59:31;;;;;;;3.75;2.80;;;;;;;21.96;50.27;100335.63;5026471;28;20052;-74
2023/07/24 01:01:57;;;;;;;3.38;2.50;;;;;;;21.95;50.51;100341.13;5031142;28;20531;-74
2023/07/24 01:04:23;;;;;;;3.03;2.38;;;;;;;21.80;50.26;100312.19;5027557;28;20034;-74
2023/07/24 01:06:49;;;;;;;3.97;2.60;;;;;;;21.95;50.43;100331.34;5031834;28;20029;-74
2023/07/24 01:09:14;;;;;;;4.55;2.63;;;;;;;21.97;50.54;100336.44;5028917;28;20045;-73
2023/07/24 01:11:54;;;;;;;5.10;3.10;;;;;;;21.97;50.14;100333.78;5046085;28;20099;-74
2023/07/24 01:14:29;;;;;;;4.80;2.97;;;;;;;21.93;50.31;100322.78;5043981;28;20041;-74
2023/07/24 01:16:58;;;;;;;3.38;2.60;;;;;;;21.96;50.50;100335.63;5028607;28;20052;-74
2023/07/24 01:19:38;;;;;;;3.60;2.55;;;;;;;21.94;50.23;100316.47;5029177;28;20033;-75
2023/07/24 01:22:28;;;;;;;3.25;2.30;;;;;;;21.96;50.57;100313.59;5039445;28;20134;-73
2023/07/24 01:24:59;;;;;;;4.85;2.63;;;;;;;21.94;50.27;100300.56;5045528;28;20060;-74
2023/07/24 01:27:25;;;;;;;3.97;2.78;;;;;;;21.94;50.59;100307.69;5031359;28;20044;-73
2023/07/24 01:29:52;;;;;;;3.90;2.72;;;;;;;21.96;50.54;100305.66;5026865;28;20540;-73
2023/07/24 01:32:19;;;;;;;3.85;2.90;;;;;;;21.88;50.35;100296.06;5046249;28;20037;-72
2023/07/24 01:34:45;;;;;;;4.13;2.63;;;;;;;21.77;50.08;100274.69;5027026;28;20049;-74
2023/07/24 01:37:12;;;;;;;4.28;2.88;;;;;;;21.93;50.28;100288.31;5027693;28;20034;-74
2023/07/24 01:39:40;;;;;;;3.83;2.72;;;;;;;21.93;50.57;100290.16;5033783;28;20048;-73
2023/07/24 01:42:06;;;;;;;3.47;2.60;;;;;;;21.79;50.31;100265.50;5046551;28;20045;-73
2023/07/24 01:44:32;;;;;;;3.88;2.70;;;;;;;21.96;50.22;100290.56;5048037;28;20098;-73
2023/07/24 01:46:57;;;;;;;3.00;2.20;;;;;;;21.95;50.12;100286.28;5030877;28;20037;-71
2023/07/24 01:49:23;;;;;;;3.22;2.25;;;;;;;21.94;50.51;100281.19;5032385;28;20041;-70
2023/07/24 01:51:48;;;;;;;4.78;3.05;;;;;;;21.93;50.54;100280.38;5030593;28;20041;-71
2023/07/24 01:54:14;;;;;;;3.80;2.60;;;;;;;21.92;50.48;100273.44;5027350;28;20045;-70
2023/07/24 01:56:39;;;;;;;3.97;2.65;;;;;;;21.90;50.55;100261.38;5028032;28;20514;-71
2023/07/24 01:59:05;;;;;;;3.63;2.70;;;;;;;21.89;50.32;100255.28;5030947;28;20061;-72
2023/07/24 02:01:31;;;;;;;3.17;2.50;;;;;;;21.91;50.56;100266.50;5028800;28;20042;-71
2023/07/24 02:03:57;;;;;;;5.00;3.00;;;;;;;21.86;50.49;100257.53;5029828;28;20049;-70
2023/07/24 02:06:23;;;;;;;4.43;2.95;;;;;;;21.89;50.30;100255.28;5016239;28;20037;-70
2023/07/24 02:08:51;;;;;;;4.18;2.80;;;;;;;21.89;50.52;100254.44;5032988;28;20474;-70
2023/07/24 02:11:16;;;;;;;3.78;2.70;;;;;;;21.89;50.22;100251.81;5042233;28;20249;-71
2023/07/24 02:13:45;;;;;;;3.53;2.53;;;;;;;21.89;50.29;100255.28;5031572;28;20037;-69
2023/07/24 02:16:12;;;;;;;4.07;2.53;;;;;;;21.89;50.27;100243.84;5029771;28;20049;-69
2023/07/24 02:18:38;;;;;;;3.83;2.65;;;;;;;21.91;50.54;100260.41;5028635;28;20038;-69
2023/07/24 02:21:04;;;;;;;2.97;2.10;;;;;;;21.90;50.39;100248.97;5016851;28;20558;-69
2023/07/24 02:23:30;;;;;;;3.50;2.40;;;;;;;21.89;50.21;100246.50;5031895;28;20100;-69
2023/07/24 02:25:55;;;;;;;3.67;2.63;;;;;;;21.85;50.39;100237.34;5029284;28;20048;-69
2023/07/24 02:28:21;;;;;;;3.95;2.72;;;;;;;21.90;50.35;100256.09;5024704;28;20233;-69
2023/07/24 02:30:47;;;;;;;4.53;3.00;;;;;;;21.91;50.47;100265.69;5029425;28;20049;-69
2023/07/24 02:33:13;;;;;;;3.33;2.60;;;;;;;21.89;50.54;100259.75;5028851;28;20060;-70
2023/07/24 02:35:41;;;;;;;2.97;2.55;;;;;;;21.90;50.47;100250.78;5031962;28;20329;-68
2023/07/24 02:38:07;;;;;;;4.90;2.72;;;;;;;21.89;50.65;100244.66;5028524;28;20033;-68
2023/07/24 02:40:33;;;;;;;3.50;2.70;;;;;;;21.89;50.43;100244.66;5030713;28;20040;-68
2023/07/24 02:42:59;;;;;;;4.10;2.75;;;;;;;21.88;50.66;100251.00;5027340;28;20519;-68
2023/07/24 02:45:25;;;;;;;4.25;2.83;;;;;;;21.86;50.71;100253.03;5030187;28;20052;-71
2023/07/24 02:47:50;;;;;;;3.75;3.00;;;;;;;21.89;50.33;100257.91;5033497;28;20168;-71
2023/07/24 02:50:16;;;;;;;4.25;2.95;;;;;;;21.89;50.27;100251.81;5058959;28;20041;-71
2023/07/24 02:52:41;;;;;;;3.92;2.88;;;;;;;21.89;50.27;100254.44;5029634;28;20101;-71
2023/07/24 02:55:07;;;;;;;4.15;2.50;;;;;;;21.88;50.35;100258.94;5026975;28;20044;-72
2023/07/24 02:57:33;;;;;;;3.80;2.80;;;;;;;21.80;50.73;100242.47;5034547;28;20160;-70
2023/07/24 02:59:58;;;;;;;4.00;2.83;;;;;;;21.89;50.49;100262.41;5029275;28;20064;-71
2023/07/24 03:02:24;;;;;;;4.07;2.70;;;;;;;21.89;50.48;100262.41;5031659;28;20041;-70
2023/07/24 03:04:50;;;;;;;5.00;2.83;;;;;;;21.86;50.75;100266.28;5033086;28;20061;-69
2023/07/24 03:07:15;;;;;;;3.95;2.58;;;;;;;21.65;50.58;100226.78;5031109;28;20404;-70
2023/07/24 03:09:41;;;;;;;4.35;2.80;;;;;;;21.87;50.69;100265.25;5029777;28;20053;-70
2023/07/24 03:12:06;;;;;;;3.85;2.70;;;;;;;21.88;50.81;100260.78;5027685;28;20046;-70
2023/07/24 03:14:32;;;;;;;3.15;2.40;;;;;;;21.87;50.42;100264.44;5030878;28;20059;-71
2023/07/24 03:16:57;;;;;;;3.88;2.65;;;;;;;21.87;50.77;100264.44;5030297;28;20073;-71
2023/07/24 03:19:23;;;;;;;4.22;2.72;;;;;;;21.88;50.25;100269.53;5035073;28;20037;-71
2023/07/24 03:21:48;;;;;;;4.13;2.90;;;;;;;21.86;50.81;100268.94;5028107;28;20068;-71
2023/07/24 03:24:14;;;;;;;4.03;2.92;;;;;;;21.85;50.84;100258.53;5031078;28;20049;-69
2023/07/24 03:26:39;;;;;;;3.10;2.40;;;;;;;21.85;50.73;100259.34;5030717;28;20041;-70
2023/07/24 03:29:05;;;;;;;3.53;2.53;;;;;;;21.85;50.31;100259.34;5029461;28;20033;-70
2023/07/24 03:31:31;;;;;;;3.88;2.78;;;;;;;21.86;50.60;100257.53;5029926;28;20052;-71
2023/07/24 03:33:56;;;;;;;3.50;2.67;;;;;;;21.84;50.68;100254.28;5026296;28;20365;-70
2023/07/24 03:36:22;;;;;;;5.00;2.72;;;;;;;21.87;50.61;100251.19;5028388;28;20068;-71
2023/07/24 03:38:47;;;;;;;4.53;2.90;;;;;;;21.87;51.05;100252.00;5031581;28;20502;-71
2023/07/24 03:41:13;;;;;;;4.32;2.97;;;;;;;21.88;50.34;100253.63;5029367;28;20041;-71
2023/07/24 03:43:38;;;;;;;3.72;2.70;;;;;;;21.88;50.71;100245.69;5027618;28;20099;-71
2023/07/24 03:46:04;;;;;;;4.18;2.97;;;;;;;21.84;50.43;100243.66;5030084;28;20046;-70
2023/07/24 03:48:29;;;;;;;3.85;2.63;;;;;;;21.81;50.87;100234.28;5031711;28;20033;-70
2023/07/24 03:51:02;;;;;;;5.05;3.05;;;;;;;21.87;50.65;100241.41;5029416;28;20146;-70
2023/07/24 03:53:27;;;;;;;4.18;2.70;;;;;;;21.77;50.45;100230.44;5030262;28;20045;-71
2023/07/24 03:55:53;;;;;;;3.53;2.90;;;;;;;21.85;50.39;100243.47;5027129;28;20037;-71
2023/07/24 03:58:19;;;;;;;3.15;2.55;;;;;;;21.87;50.60;100245.91;5028003;28;20052;-70
2023/07/24 04:00:45;;;;;;;7.25;2.88;;;;;;;21.63;50.75;100211.09;5023855;28;20041;-70
2023/07/24 04:03:11;;;;;;;3.67;2.80;;;;;;;21.80;50.72;100247.75;5030709;28;20041;-71
2023/07/24 04:05:36;;;;;;;3.50;2.60;;;;;;;21.83;50.37;100256.09;5021968;28;20038;-71
2023/07/24 04:08:03;;;;;;;3.38;2.67;;;;;;;21.87;50.51;100251.19;5028670;28;20040;-70
2023/07/24 04:10:28;;;;;;;4.20;3.00;;;;;;;21.86;50.80;100253.03;5026215;28;20041;-68
2023/07/24 04:12:54;;;;;;;4.20;2.90;;;;;;;21.87;50.80;100249.38;5027167;28;20048;-69
2023/07/24 04:15:20;;;;;;;3.88;2.90;;;;;;;21.87;50.59;100230.00;5026754;28;20108;-68
2023/07/24 04:17:45;;;;;;;4.35;2.70;;;;;;;21.87;50.71;100238.75;5030329;28;20033;-69
2023/07/24 04:20:11;;;;;;;3.63;2.80;;;;;;;21.82;50.79;100229.81;5026245;28;20054;-69
2023/07/24 04:22:37;;;;;;;3.30;2.53;;;;;;;21.88;50.62;100240.38;5026366;28;20097;-69
2023/07/24 04:25:02;;;;;;;3.70;2.45;;;;;;;21.86;50.35;100229.19;5026752;28;20112;-69
2023/07/24 04:27:28;;;;;;;3.88;2.63;;;;;;;21.88;50.46;100226.31;5026244;28;20049;-69
2023/07/24 04:29:53;;;;;;;4.20;2.90;;;;;;;21.88;50.42;100223.66;5028281;28;20037;-69
2023/07/24 04:32:19;;;;;;;3.95;2.78;;;;;;;21.86;50.40;100231.03;5029909;28;20117;-69
2023/07/24 04:34:44;;;;;;;3.85;2.90;;;;;;;21.82;50.39;100209.41;5025300;28;20499;-70
2023/07/24 04:37:10;;;;;;;2.90;2.40;;;;;;;21.76;50.58;100202.31;5038777;28;20030;-68
2023/07/24 04:39:38;;;;;;;3.63;2.85;;;;;;;21.90;50.67;100242.81;5025233;28;20107;-68
2023/07/24 04:42:04;;;;;;;3.72;2.80;;;;;;;21.87;50.43;100241.41;5031277;28;20061;-68
2023/07/24 04:44:31;;;;;;;3.42;2.50;;;;;;;21.87;50.54;100241.41;5027432;28;20044;-68
2023/07/24 04:46:57;;;;;;;3.25;2.80;;;;;;;21.86;50.51;100249.56;5028687;28;20051;-69
2023/07/24 04:49:24;;;;;;;3.08;2.40;;;;;;;21.82;50.73;100241.22;5028213;28;20034;-69
2023/07/24 04:51:50;;;;;;;3.58;2.88;;;;;;;21.88;50.45;100242.22;5028675;28;20036;-67
2023/07/24 04:54:15;;;;;;;3.72;2.80;;;;;;;21.87;50.66;100233.47;5030798;28;20041;-69
2023/07/24 04:56:41;;;;;;;3.58;2.67;;;;;;;21.75;50.59;100207.81;5021499;28;20041;-70
2023/07/24 04:59:06;;;;;;;3.20;2.45;;;;;;;21.87;50.71;100232.66;5028395;28;20426;-70
2023/07/24 05:01:32;;;;;;;3.97;2.70;;;;;;;21.79;50.57;100224.94;5029079;28;20041;-71
2023/07/24 05:03:57;;;;;;;3.65;2.60;;;;;;;21.85;50.52;100224.09;5025749;28;20454;-70
2023/07/24 05:06:23;;;;;;;3.50;2.90;;;;;;;21.87;50.42;100225.50;5022731;28;20033;-70
2023/07/24 05:08:49;;;;;;;3.95;2.80;;;;;;;21.81;50.40;100197.19;5027898;28;20041;-71
2023/07/24 05:11:14;;;;;;;3.95;2.53;;;;;;;21.90;50.36;100200.41;5026097;28;20037;-71
2023/07/24 05:13:40;;;;;;;3.78;2.47;;;;;;;21.88;50.51;100202.47;5026900;28;20053;-69
2023/07/24 05:16:05;;;;;;;3.58;2.60;;;;;;;21.89;50.59;100204.09;5034458;28;20042;-69
2023/07/24 05:18:31;;;;;;;4.03;2.70;;;;;;;21.88;50.65;100202.47;5026639;28;20041;-69
2023/07/24 05:20:56;;;;;;;3.58;2.70;;;;;;;21.89;50.54;100190.84;5030668;28;20041;-70
2023/07/24 05:23:22;;;;;;;3.72;2.63;;;;;;;21.90;50.46;100182.72;5031298;28;20128;-69
2023/07/24 05:25:47;;;;;;;4.32;2.63;;;;;;;21.92;50.57;100201.06;5033234;28;20041;-69
2023/07/24 05:28:13;;;;;;;4.00;3.00;;;;;;;21.89;50.44;100196.13;5030974;28;20060;-69
2023/07/24 05:30:38;;;;;;;3.97;2.55;;;;;;;21.86;50.60;100201.88;5030132;28;20296;-70
2023/07/24 05:33:04;;;;;;;3.22;2.50;;;;;;;21.88;50.56;100192.69;5032410;28;20041;-67
2023/07/24 05:35:29;;;;;;;3.85;2.83;;;;;;;21.92;50.49;100203.69;5029945;28;20045;-68
2023/07/24 05:37:55;;;;;;;3.40;2.58;;;;;;;21.92;50.22;100204.50;5026697;28;20116;-68
2023/07/24 05:40:20;;;;;;;3.97;2.63;;;;;;;21.91;50.37;100205.53;5034464;28;20523;-69
2023/07/24 05:42:47;;;;;;;4.30;2.50;;;;;;;21.91;50.13;100204.72;5033244;28;20049;-69
2023/07/24 05:45:14;;;;;;;4.60;3.08;;;;;;;21.73;50.42;100180.72;5029676;28;20480;-69
2023/07/24 05:47:40;;;;;;;3.50;2.60;;;;;;;21.86;50.31;100193.91;5028667;28;20034;-69
2023/07/24 05:50:06;;;;;;;4.13;3.05;;;;;;;21.91;50.61;100205.53;5029458;28;20084;-69
2023/07/24 05:52:31;;;;;;;3.70;2.80;;;;;;;21.91;50.57;100204.72;5032746;28;20144;-70
2023/07/24 05:54:56;;;;;;;4.30;2.70;;;;;;;21.86;50.51;100199.22;5032941;28;20048;-69
2023/07/24 05:57:22;;;;;;;3.08;2.40;;;;;;;21.92;50.18;100209.81;5029910;28;20057;-70
2023/07/24 05:59:48;;;;;;;3.75;2.75;;;;;;;21.96;50.47;100220.81;5029088;28;20057;-69
2023/07/24 06:02:13;;;;;;;4.07;2.92;;;;;;;21.94;50.04;100223.69;5031365;28;20052;-70
2023/07/24 06:04:39;;;;;;;3.40;2.58;;;;;;;21.98;50.17;100218.75;5030967;28;20049;-70
2023/07/24 06:07:04;;;;;;;3.92;2.45;;;;;;;21.95;50.17;100222.66;5028404;28;20140;-69
2023/07/24 06:09:30;;;;;;;3.95;2.80;;;;;;;21.95;50.43;100217.34;5026956;28;20049;-70
2023/07/24 06:11:55;;;;;;;4.50;2.70;;;;;;;21.97;50.41;100217.13;5029969;28;20037;-69
2023/07/24 06:14:21;;;;;;;5.30;2.70;;;;;;;21.95;50.47;100212.03;5028943;28;20064;-70
2023/07/24 06:16:46;;;;;;;3.60;2.60;;;;;;;21.93;50.15;100214.09;5023845;28;20038;-69
2023/07/24 06:19:12;;;;;;;4.20;2.70;;;;;;;21.96;50.13;100218.16;5030048;28;20049;-69
2023/07/24 06:21:37;;;;;;;3.47;2.70;;;;;;;21.96;50.34;100221.63;5030275;28;20618;-69
2023/07/24 06:24:03;;;;;;;3.85;2.50;;;;;;;21.97;50.46;100207.34;5033374;28;20045;-70
2023/07/24 06:26:29;;;;;;;3.42;2.70;;;;;;;22.01;50.28;100213.03;5029252;28;20113;-69
2023/07/24 06:28:54;;;;;;;3.50;2.42;;;;;;;22.00;50.09;100209.56;5030958;28;20033;-68
2023/07/24 06:31:20;;;;;;;4.60;2.97;;;;;;;21.99;49.86;100213.25;5027496;28;20683;-69
2023/07/24 06:33:46;;;;;;;3.65;2.90;;;;;;;21.99;50.29;100207.94;5032257;28;20045;-69
2023/07/24 06:36:12;;;;;;;2.85;2.38;;;;;;;22.01;50.39;100215.69;5029257;28;20045;-69
2023/07/24 06:38:37;;;;;;;3.00;2.60;;;;;;;22.00;50.17;100214.88;5032015;28;20113;-68
2023/07/24 06:41:03;;;;;;;3.15;2.60;;;;;;;22.01;50.07;100208.56;5028369;28;20075;-68
2023/07/24 06:43:28;;;;;;;3.47;2.70;;;;;;;22.05;50.20;100214.28;5028544;28;20127;-68
2023/07/24 06:45:54;;;;;;;3.78;2.60;;;;;;;22.05;50.00;100208.16;5031061;28;20042;-68
2023/07/24 06:48:20;;;;;;;3.53;2.63;;;;;;;22.10;49.84;100213.66;5029004;28;20088;-68
2023/07/24 06:50:45;;;;;;;3.53;2.67;;;;;;;22.13;50.07;100213.25;5030054;28;20109;-69
2023/07/24 06:53:11;;;;;;;3.55;2.70;;;;;;;22.09;49.95;100204.91;5028882;28;20386;-68
2023/07/24 06:55:36;;;;;;;3.58;2.78;;;;;;;22.17;50.05;100217.91;5029560;28;20543;-68
2023/07/24 06:58:02;;;;;;;3.22;2.42;;;;;;;22.16;49.62;100215.47;5030511;28;20033;-68
2023/07/24 07:00:27;;;;;;;3.25;2.47;;;;;;;22.08;49.73;100203.25;5028249;28;20045;-69
2023/07/24 07:02:53;;;;;;;3.33;2.58;;;;;;;22.16;49.86;100216.28;5029132;28;20036;-68
2023/07/24 07:05:18;;;;;;;3.42;2.65;;;;;;;22.16;49.78;100223.44;5024185;28;20037;-68
2023/07/24 07:07:44;;;;;;;2.90;2.35;;;;;;;22.16;49.68;100223.44;5030377;28;20052;-69
2023/07/24 07:10:10;;;;;;;3.80;2.85;;;;;;;22.17;49.86;100225.88;5025369;28;20049;-68
2023/07/24 07:12:35;;;;;;;2.60;2.30;;;;;;;22.19;49.64;100223.00;5044612;28;20049;-69
2023/07/24 07:15:01;;;;;;;3.60;2.58;;;;;;;22.19;50.00;100217.69;5027941;28;20061;-71
2023/07/24 07:17:26;;;;;;;4.07;2.67;;;;;;;22.20;49.53;100217.50;5029644;28;20073;-70
2023/07/24 07:19:52;;;;;;;3.72;3.10;;;;;;;22.23;49.71;100221.56;5027243;28;20060;-70
2023/07/24 07:22:17;;;;;;;3.83;2.70;;;;;;;22.20;49.87;100217.50;5029371;28;20045;-73
2023/07/24 07:24:43;;;;;;;3.53;2.80;;;;;;;22.25;50.00;100219.50;5034131;28;20030;-73
2023/07/24 07:27:09;;;;;;;4.35;2.60;;;;;;;22.25;49.69;100211.56;5032681;28;20033;-72
2023/07/24 07:29:35;;;;;;;3.83;2.83;;;;;;;22.24;49.65;100215.22;5028469;28;20029;-72
2023/07/24 07:32:00;;;;;;;4.05;2.75;;;;;;;22.24;49.66;100215.22;5027676;28;20062;-69
2023/07/24 07:34:26;;;;;;;3.50;2.33;;;;;;;22.25;49.54;100207.06;5027801;28;20029;-70
2023/07/24 07:36:51;;;;;;;4.47;2.90;;;;;;;22.26;49.55;100202.56;5025572;28;21827;-69
2023/07/24 07:39:17;;;;;;;5.63;3.13;;;;;;;22.17;49.47;100194.06;5028233;28;20048;-70
2023/07/24 07:41:43;;;;;;;3.75;2.78;;;;;;;22.21;49.91;100205.84;5026594;28;20065;-70
2023/07/24 07:44:08;;;;;;;3.50;2.80;;;;;;;22.24;49.74;100209.91;5031647;28;20048;-70
2023/07/24 07:46:34;;;;;;;3.78;2.80;;;;;;;22.25;49.90;100204.41;5031637;28;20503;-69
2023/07/24 07:48:59;;;;;;;3.85;2.67;;;;;;;22.27;49.58;100202.38;5029792;28;20049;-69
2023/07/24 07:51:26;;;;;;;3.50;2.70;;;;;;;22.14;49.65;100183.88;5019104;28;20084;-70
2023/07/24 07:53:51;;;;;;;4.22;2.80;;;;;;;22.24;49.62;100199.31;5027846;28;20049;-70
2023/07/24 07:56:17;;;;;;;4.15;2.70;;;;;;;22.27;49.77;100207.69;5032333;28;20037;-71
2023/07/24 07:58:42;;;;;;;3.95;2.80;;;;;;;22.27;49.68;100197.09;5027033;28;20061;-69
2023/07/24 08:01:08;;;;;;;3.20;2.58;;;;;;;22.29;49.54;100208.28;5043822;28;20040;-70
2023/07/24 08:03:34;;;;;;;4.15;2.70;;;;;;;22.31;49.63;100202.78;5025970;28;20042;-70
2023/07/24 08:06:00;;;;;;;3.90;2.42;;;;;;;22.31;49.48;100200.94;5026745;28;20033;-69
2023/07/24 08:08:25;;;;;;;3.70;2.70;;;;;;;22.29;49.47;100205.63;5028382;28;20044;-70
2023/07/24 08:10:51;;;;;;;3.58;2.90;;;;;;;22.27;49.56;100198.91;5025237;28;20034;-71
2023/07/24 08:13:17;;;;;;;4.30;2.67;;;;;;;22.27;50.00;100198.91;5030451;28;20052;-70
2023/07/24 08:15:42;;;;;;;4.30;3.13;;;;;;;22.23;49.71;100190.53;5029474;28;20045;-71
2023/07/24 08:18:08;;;;;;;4.63;2.90;;;;;;;22.29;49.82;100195.03;5030305;28;20046;-70
2023/07/24 08:20:38;;;;;;;3.53;3.17;;;;;;;22.28;49.92;100193.41;5028604;28;20091;-71
2023/07/24 08:23:04;;;;;;;4.10;2.92;;;;;;;22.20;49.67;100180.38;5028484;28;20029;-71
2023/07/24 08:25:30;;;;;;;3.63;2.70;;;;;;;22.31;49.70;100194.81;5031712;28;20033;-71
2023/07/24 08:27:56;;;;;;;4.32;2.95;;;;;;;22.31;49.43;100195.63;5027010;28;20037;-70
2023/07/24 08:30:21;;;;;;;4.80;2.60;;;;;;;22.30;49.60;100194.00;5029677;28;20126;-71
2023/07/24 08:32:48;;;;;;;3.53;2.85;;;;;;;22.31;49.66;100192.97;5031067;28;20045;-71
2023/07/24 08:35:14;;;;;;;4.25;3.15;;;;;;;22.32;49.55;100191.13;5028142;28;20037;-71
2023/07/24 08:37:43;;;;;;;3.53;2.78;;;;;;;22.34;49.58;100196.22;5031288;28;20052;-71
2023/07/24 08:40:10;;;;;;;3.90;3.13;;;;;;;22.35;49.69;100187.25;5039611;28;20112;-72
2023/07/24 08:42:40;;;;;;;4.53;2.90;;;;;;;22.34;49.79;100185.63;5029124;28;20059;-72
2023/07/24 08:45:15;;;;;;;3.78;2.70;;;;;;;22.34;49.62;100175.00;5029612;28;20060;-71
2023/07/24 08:47:44;;;;;;;4.28;2.97;;;;;;;22.33;49.68;100178.69;5027788;28;20041;-75
2023/07/24 08:50:15;;;;;;;3.88;2.90;;;;;;;22.31;49.75;100181.56;5033147;28;20107;-72
2023/07/24 08:52:42;;;;;;;3.65;3.00;;;;;;;22.33;49.67;100184.81;5037182;28;20097;-72
2023/07/24 08:55:08;;;;;;;5.88;2.90;;;;;;;22.36;49.71;100188.88;5052469;28;20051;-73
2023/07/24 08:57:34;;;;;;;3.95;2.90;;;;;;;22.28;49.62;100171.38;5030783;28;20040;-72
2023/07/24 09:00:04;;;;;;;4.13;3.10;;;;;;;22.37;49.71;100185.19;5029213;28;20064;-72
2023/07/24 09:02:34;;;;;;;4.60;3.10;;;;;;;22.41;49.53;100178.44;5032200;28;20030;-72
2023/07/24 09:05:00;;;;;;;4.75;2.80;;;;;;;22.40;49.55;100179.44;5034165;28;20484;-72
2023/07/24 09:07:25;;;;;;;3.90;2.67;;;;;;;22.40;49.52;100174.16;5037080;28;20123;-71
2023/07/24 09:09:51;;;;;;;3.85;2.90;;;;;;;22.37;49.62;100170.09;5035352;28;20041;-71
2023/07/24 09:12:17;;;;;;;4.38;3.08;;;;;;;22.40;49.72;100172.31;5027461;28;20116;-71
2023/07/24 09:14:45;;;;;;;3.72;2.85;;;;;;;22.41;49.72;100173.13;5032442;28;20037;-71
2023/07/24 09:17:11;;;;;;;5.53;3.08;;;;;;;22.43;49.22;100174.53;5045089;28;20047;-70
2023/07/24 09:19:37;;;;;;;3.25;2.60;;;;;;;22.24;49.57;100141.78;5031240;28;20052;-72
2023/07/24 09:22:11;;;;;;;3.28;2.60;;;;;;;22.51;49.46;100178.78;5032836;28;20041;-70
2023/07/24 09:24:37;;;;;;;3.50;2.80;;;;;;;22.47;49.06;100159.84;5031175;28;20034;-72
2023/07/24 09:27:06;;;;;;;4.07;3.00;;;;;;;22.42;49.07;100138.41;5031515;28;20044;-72
2023/07/24 09:29:33;;;;;;;4.43;2.80;;;;;;;22.60;48.84;100167.69;5032671;28;20037;-71
2023/07/24 09:32:01;;;;;;;4.43;3.40;;;;;;;22.54;48.98;100157.13;5035823;28;20045;-72
2023/07/24 09:34:27;;;;;;;4.07;3.10;;;;;;;22.61;48.84;100164.00;5029363;28;20579;-72
2023/07/24 09:36:53;;;;;;;4.15;3.08;;;;;;;22.63;49.03;100158.53;5029696;28;20049;-73
2023/07/24 09:39:27;;;;;;;3.13;2.80;;;;;;;22.65;49.26;100168.91;5033144;28;20041;-72
2023/07/24 09:41:54;;;;;;;6.25;3.28;;;;;;;22.67;49.03;100170.31;5027463;28;20037;-72
2023/07/24 09:44:20;;;;;;;6.97;3.25;;;;;;;22.56;49.26;100150.59;5028292;28;20418;-72
2023/07/24 09:46:45;;;;;;;4.10;3.08;;;;;;;22.71;48.90;100176.00;5034697;28;20130;-72
2023/07/24 09:49:12;;;;;;;4.43;3.10;;;;;;;22.73;48.86;100166.00;5031555;28;20388;-72
2023/07/24 09:51:37;;;;;;;5.05;3.50;;;;;;;22.73;49.03;100160.69;5031343;28;20074;-72
2023/07/24 09:54:09;;;;;;;4.72;3.15;;;;;;;22.74;48.96;100154.34;5030720;28;20042;-72
2023/07/24 09:56:35;;;;;;;4.40;3.33;;;;;;;22.76;49.18;100149.63;5032331;28;21570;-72
2023/07/24 09:59:02;;;;;;;4.53;3.38;;;;;;;22.75;49.04;100148.00;5028498;28;20076;-73
2023/07/24 10:01:30;;;;;;;4.55;3.50;;;;;;;22.77;49.00;100152.06;5045236;28;20036;-71
2023/07/24 10:03:58;;;;;;;5.95;4.10;;;;;;;22.75;48.73;100142.69;5030506;28;20116;-72
2023/07/24 10:06:24;;;;;;;6.25;3.72;;;;;;;22.72;49.21;100136.00;5031041;28;20374;-71
2023/07/24 10:08:52;;;;;;;3.85;3.08;;;;;;;22.76;49.02;100139.03;5028831;28;20038;-72
2023/07/24 10:11:19;;;;;;;4.97;3.40;;;;;;;22.58;48.76;100116.69;5030199;28;20049;-72
2023/07/24 10:13:45;;;;;;;5.47;3.33;;;;;;;22.77;49.08;100130.03;5033441;28;20045;-72
2023/07/24 10:16:11;;;;;;;5.13;3.40;;;;;;;22.74;48.91;100133.94;5031289;28;20108;-72
2023/07/24 10:18:45;;;;;;;6.15;3.30;;;;;;;22.79;48.93;100131.44;5030493;28;20053;-72
2023/07/24 10:21:10;;;;;;;6.13;4.00;;;;;;;22.73;48.77;100120.88;5030681;28;20063;-70
2023/07/24 10:23:49;;;;;;;3.95;2.88;;;;;;;22.74;48.97;100122.50;5033179;28;20038;-70
2023/07/24 10:26:15;;;;;;;4.32;2.95;;;;;;;22.79;49.01;100130.63;5029344;28;20056;-73
2023/07/24 10:28:41;;;;;;;4.07;3.10;;;;;;;22.72;48.73;100106.78;5033009;28;20029;-71
2023/07/24 10:31:18;;;;;;;6.88;3.78;;;;;;;22.80;49.13;100124.28;5028099;28;20041;-70
2023/07/24 10:33:47;;;;;;;5.30;3.42;;;;;;;22.75;49.38;100122.28;5031973;28;20041;-72
2023/07/24 10:36:19;;;;;;;7.72;4.18;;;;;;;22.80;49.42;100130.44;5025614;28;20045;-72
2023/07/24 10:38:45;;;;;;;5.47;3.55;;;;;;;22.78;49.23;100123.69;5027204;28;20061;-73
2023/07/24 10:41:11;;;;;;;4.00;3.38;;;;;;;22.79;49.62;100123.47;5031966;28;20045;-72
2023/07/24 10:43:48;;;;;;;4.68;3.55;;;;;;;22.79;49.31;100123.47;5032960;28;20029;-73
2023/07/24 10:46:16;;;;;;;5.00;3.83;;;;;;;22.77;49.47;100130.84;5028918;28;20036;-71
2023/07/24 10:48:43;;;;;;;4.57;3.42;;;;;;;22.66;49.65;100107.66;5030312;28;20034;-70
2023/07/24 10:51:10;;;;;;;4.47;3.38;;;;;;;22.79;49.55;100134.09;5028574;28;20056;-71
2023/07/24 10:53:37;;;;;;;4.35;3.33;;;;;;;22.76;49.21;100123.09;5034191;28;20045;-73
2023/07/24 10:56:05;;;;;;;5.60;3.35;;;;;;;22.79;49.33;100118.16;5028965;28;20160;-73
2023/07/24 10:58:31;;;;;;;4.85;3.70;;;;;;;22.80;49.46;100111.00;5022452;28;20041;-74
2023/07/24 11:00:58;;;;;;;5.68;4.07;;;;;;;22.85;49.74;100114.69;5027495;28;20052;-74
2023/07/24 11:03:25;;;;;;;5.00;3.30;;;;;;;22.78;49.52;100103.25;5028364;28;20646;-74
2023/07/24 11:05:50;;;;;;;6.03;3.72;;;;;;;22.83;49.44;100111.44;5031738;28;20828;-73
2023/07/24 11:08:18;;;;;;;5.15;3.47;;;;;;;22.84;49.52;100120.22;5028838;28;20037;-74
2023/07/24 11:10:52;;;;;;;5.38;3.30;;;;;;;22.71;49.45;100101.69;5029896;28;20041;-74
2023/07/24 11:13:20;;;;;;;5.45;3.88;;;;;;;22.72;49.49;100117.41;5028250;28;20033;-74
2023/07/24 11:15:47;;;;;;;6.03;3.65;;;;;;;22.83;49.91;100121.25;5031214;28;20037;-74
2023/07/24 11:18:13;;;;;;;5.20;3.08;;;;;;;22.78;49.70;100113.06;5030417;28;20040;-73
2023/07/24 11:20:45;;;;;;;4.47;3.05;;;;;;;22.80;49.57;100119.81;5032270;28;20049;-73